sensor_id;sensor_type;location;lat;lon;timestamp;P1;durP1;ratioP1;P2;durP2;ratioP2
16735;SDS011;17990;49.548;9.730;2024-01-30T00:00:08;19.57;;;11.40;;
16735;SDS011;17990;49.548;9.730;2024-01-30T00:02:35;19.73;;;11.40;;
16735;SDS011;17990;49.548;9.730;2024-01-30T00:05:02;15.83;;;10.43;;
16735;SDS011;17990;49.548;9.730;2024-01-30T00:07:31;21.80;;;11.23;;
16735;SDS011;17990;49.548;9.730;2024-01-30T00:09:58;18.07;;;10.47;;
16735;SDS011;17990;49.548;9.730;2024-01-30T00:12:24;16.30;;;9.83;;
16735;SDS011;17990;49.548;9.730;2024-01-30T00:14:51;16.67;;;10.93;;
16735;SDS011;17990;49.548;9.730;2024-01-30T00:17:18;17.63;;;10.60;;
16735;SDS011;17990;49.548;9.730;2024-01-30T00:19:45;17.73;;;11.33;;
16735;SDS011;17990;49.548;9.730;2024-01-30T00:22:12;18.23;;;10.37;;
16735;SDS011;17990;49.548;9.730;2024-01-30T00:24:40;19.07;;;11.17;;
16735;SDS011;17990;49.548;9.730;2024-01-30T00:27:07;17.23;;;11.13;;
16735;SDS011;17990;49.548;9.730;2024-01-30T00:29:34;18.77;;;11.17;;
16735;SDS011;17990;49.548;9.730;2024-01-30T00:32:01;17.40;;;11.03;;
16735;SDS011;17990;49.548;9.730;2024-01-30T00:34:27;21.47;;;11.67;;
16735;SDS011;17990;49.548;9.730;2024-01-30T00:36:54;25.03;;;11.67;;
16735;SDS011;17990;49.548;9.730;2024-01-30T00:39:21;15.63;;;9.67;;
16735;SDS011;17990;49.548;9.730;2024-01-30T00:41:49;18.33;;;9.90;;
16735;SDS011;17990;49.548;9.730;2024-01-30T00:44:15;13.87;;;8.83;;
16735;SDS011;17990;49.548;9.730;2024-01-30T00:46:42;16.83;;;9.23;;
16735;SDS011;17990;49.548;9.730;2024-01-30T00:49:09;18.87;;;9.67;;
16735;SDS011;17990;49.548;9.730;2024-01-30T00:51:36;19.07;;;9.93;;
16735;SDS011;17990;49.548;9.730;2024-01-30T00:54:03;27.37;;;11.37;;
16735;SDS011;17990;49.548;9.730;2024-01-30T00:56:31;25.30;;;9.90;;
16735;SDS011;17990;49.548;9.730;2024-01-30T00:58:59;21.47;;;9.97;;
16735;SDS011;17990;49.548;9.730;2024-01-30T01:01:26;20.77;;;9.70;;
16735;SDS011;17990;49.548;9.730;2024-01-30T01:03:52;29.60;;;11.30;;
16735;SDS011;17990;49.548;9.730;2024-01-30T01:06:19;18.90;;;9.53;;
16735;SDS011;17990;49.548;9.730;2024-01-30T01:08:46;19.97;;;9.97;;
16735;SDS011;17990;49.548;9.730;2024-01-30T01:11:12;22.70;;;10.00;;
16735;SDS011;17990;49.548;9.730;2024-01-30T01:13:39;24.70;;;11.37;;
16735;SDS011;17990;49.548;9.730;2024-01-30T01:16:07;25.33;;;10.53;;
16735;SDS011;17990;49.548;9.730;2024-01-30T01:18:34;35.73;;;11.97;;
16735;SDS011;17990;49.548;9.730;2024-01-30T01:21:00;32.30;;;11.27;;
16735;SDS011;17990;49.548;9.730;2024-01-30T01:23:27;39.53;;;11.03;;
16735;SDS011;17990;49.548;9.730;2024-01-30T01:25:54;36.07;;;11.13;;
16735;SDS011;17990;49.548;9.730;2024-01-30T01:28:20;32.80;;;11.03;;
16735;SDS011;17990;49.548;9.730;2024-01-30T01:30:47;29.03;;;11.67;;
16735;SDS011;17990;49.548;9.730;2024-01-30T01:33:15;29.70;;;10.70;;
16735;SDS011;17990;49.548;9.730;2024-01-30T01:35:42;33.77;;;10.97;;
16735;SDS011;17990;49.548;9.730;2024-01-30T01:38:09;34.03;;;11.97;;
16735;SDS011;17990;49.548;9.730;2024-01-30T01:40:36;26.67;;;11.10;;
16735;SDS011;17990;49.548;9.730;2024-01-30T01:43:04;28.07;;;13.67;;
16735;SDS011;17990;49.548;9.730;2024-01-30T01:45:31;26.60;;;11.37;;
16735;SDS011;17990;49.548;9.730;2024-01-30T01:47:58;19.07;;;10.23;;
16735;SDS011;17990;49.548;9.730;2024-01-30T01:50:26;17.63;;;9.37;;
16735;SDS011;17990;49.548;9.730;2024-01-30T01:52:53;14.77;;;8.50;;
16735;SDS011;17990;49.548;9.730;2024-01-30T01:55:21;17.10;;;9.13;;
16735;SDS011;17990;49.548;9.730;2024-01-30T01:57:49;15.93;;;9.13;;
16735;SDS011;17990;49.548;9.730;2024-01-30T02:00:16;16.80;;;8.47;;
16735;SDS011;17990;49.548;9.730;2024-01-30T02:02:44;13.17;;;7.87;;
16735;SDS011;17990;49.548;9.730;2024-01-30T02:05:12;15.53;;;7.83;;
16735;SDS011;17990;49.548;9.730;2024-01-30T02:07:40;11.43;;;7.90;;
16735;SDS011;17990;49.548;9.730;2024-01-30T02:10:07;12.90;;;7.27;;
16735;SDS011;17990;49.548;9.730;2024-01-30T02:12:34;13.27;;;7.47;;
16735;SDS011;17990;49.548;9.730;2024-01-30T02:15:01;14.33;;;8.27;;
16735;SDS011;17990;49.548;9.730;2024-01-30T02:17:29;17.40;;;9.00;;
16735;SDS011;17990;49.548;9.730;2024-01-30T02:19:56;18.13;;;9.80;;
16735;SDS011;17990;49.548;9.730;2024-01-30T02:22:24;19.53;;;10.43;;
16735;SDS011;17990;49.548;9.730;2024-01-30T02:24:51;23.00;;;10.53;;
16735;SDS011;17990;49.548;9.730;2024-01-30T02:27:18;22.97;;;10.00;;
16735;SDS011;17990;49.548;9.730;2024-01-30T02:29:44;19.03;;;10.20;;
16735;SDS011;17990;49.548;9.730;2024-01-30T02:32:11;19.73;;;10.10;;
16735;SDS011;17990;49.548;9.730;2024-01-30T02:34:38;24.93;;;11.57;;
16735;SDS011;17990;49.548;9.730;2024-01-30T02:37:04;25.83;;;11.53;;
16735;SDS011;17990;49.548;9.730;2024-01-30T02:39:32;24.73;;;11.33;;
16735;SDS011;17990;49.548;9.730;2024-01-30T02:41:59;27.07;;;11.87;;
16735;SDS011;17990;49.548;9.730;2024-01-30T02:44:26;19.80;;;10.87;;
16735;SDS011;17990;49.548;9.730;2024-01-30T02:46:52;29.70;;;11.97;;
16735;SDS011;17990;49.548;9.730;2024-01-30T02:49:20;58.83;;;13.77;;
16735;SDS011;17990;49.548;9.730;2024-01-30T02:51:46;67.43;;;14.93;;
16735;SDS011;17990;49.548;9.730;2024-01-30T02:54:13;29.57;;;11.67;;
16735;SDS011;17990;49.548;9.730;2024-01-30T02:56:41;37.43;;;12.73;;
16735;SDS011;17990;49.548;9.730;2024-01-30T02:59:08;26.83;;;12.87;;
16735;SDS011;17990;49.548;9.730;2024-01-30T03:01:41;57.10;;;14.90;;
16735;SDS011;17990;49.548;9.730;2024-01-30T03:04:08;45.20;;;13.67;;
16735;SDS011;17990;49.548;9.730;2024-01-30T03:06:35;81.97;;;15.33;;
16735;SDS011;17990;49.548;9.730;2024-01-30T03:09:02;43.77;;;14.07;;
16735;SDS011;17990;49.548;9.730;2024-01-30T03:11:29;39.50;;;13.60;;
16735;SDS011;17990;49.548;9.730;2024-01-30T03:13:57;39.57;;;13.73;;
16735;SDS011;17990;49.548;9.730;2024-01-30T03:16:24;53.97;;;14.50;;
16735;SDS011;17990;49.548;9.730;2024-01-30T03:18:51;36.77;;;14.63;;
16735;SDS011;17990;49.548;9.730;2024-01-30T03:21:17;80.83;;;15.87;;
16735;SDS011;17990;49.548;9.730;2024-01-30T03:23:44;38.63;;;13.50;;
16735;SDS011;17990;49.548;9.730;2024-01-30T03:26:11;40.87;;;14.40;;
16735;SDS011;17990;49.548;9.730;2024-01-30T03:28:38;35.77;;;12.97;;
16735;SDS011;17990;49.548;9.730;2024-01-30T03:31:06;27.67;;;12.87;;
16735;SDS011;17990;49.548;9.730;2024-01-30T03:33:33;40.10;;;13.83;;
16735;SDS011;17990;49.548;9.730;2024-01-30T03:36:02;26.37;;;12.87;;
16735;SDS011;17990;49.548;9.730;2024-01-30T03:38:29;35.87;;;13.17;;
16735;SDS011;17990;49.548;9.730;2024-01-30T03:40:57;23.07;;;12.30;;
16735;SDS011;17990;49.548;9.730;2024-01-30T03:43:24;29.00;;;13.27;;
16735;SDS011;17990;49.548;9.730;2024-01-30T03:45:51;27.60;;;13.43;;
16735;SDS011;17990;49.548;9.730;2024-01-30T03:48:20;20.67;;;12.80;;
16735;SDS011;17990;49.548;9.730;2024-01-30T03:50:47;21.23;;;13.23;;
16735;SDS011;17990;49.548;9.730;2024-01-30T03:53:14;18.23;;;12.10;;
16735;SDS011;17990;49.548;9.730;2024-01-30T03:55:40;19.87;;;12.03;;
16735;SDS011;17990;49.548;9.730;2024-01-30T03:58:07;19.87;;;11.20;;
16735;SDS011;17990;49.548;9.730;2024-01-30T04:00:34;18.80;;;11.27;;
16735;SDS011;17990;49.548;9.730;2024-01-30T04:03:00;20.30;;;12.17;;
16735;SDS011;17990;49.548;9.730;2024-01-30T04:05:28;20.70;;;12.57;;
16735;SDS011;17990;49.548;9.730;2024-01-30T04:07:55;19.40;;;11.83;;
16735;SDS011;17990;49.548;9.730;2024-01-30T04:10:22;24.03;;;12.87;;
16735;SDS011;17990;49.548;9.730;2024-01-30T04:12:50;21.70;;;12.97;;
16735;SDS011;17990;49.548;9.730;2024-01-30T04:15:19;20.33;;;12.83;;
16735;SDS011;17990;49.548;9.730;2024-01-30T04:17:45;20.97;;;13.03;;
16735;SDS011;17990;49.548;9.730;2024-01-30T04:20:13;25.10;;;13.67;;
16735;SDS011;17990;49.548;9.730;2024-01-30T04:22:43;22.67;;;13.23;;
16735;SDS011;17990;49.548;9.730;2024-01-30T04:25:10;23.37;;;13.43;;
16735;SDS011;17990;49.548;9.730;2024-01-30T04:27:36;28.90;;;14.50;;
16735;SDS011;17990;49.548;9.730;2024-01-30T04:30:04;23.67;;;13.87;;
16735;SDS011;17990;49.548;9.730;2024-01-30T04:32:31;25.97;;;13.80;;
16735;SDS011;17990;49.548;9.730;2024-01-30T04:34:58;22.67;;;13.00;;
16735;SDS011;17990;49.548;9.730;2024-01-30T04:37:25;25.47;;;13.67;;
16735;SDS011;17990;49.548;9.730;2024-01-30T04:39:53;27.10;;;14.07;;
16735;SDS011;17990;49.548;9.730;2024-01-30T04:42:19;23.57;;;12.80;;
16735;SDS011;17990;49.548;9.730;2024-01-30T04:44:46;26.03;;;14.33;;
16735;SDS011;17990;49.548;9.730;2024-01-30T04:47:13;27.33;;;14.43;;
16735;SDS011;17990;49.548;9.730;2024-01-30T04:49:39;28.03;;;13.93;;
16735;SDS011;17990;49.548;9.730;2024-01-30T04:52:06;27.37;;;14.93;;
16735;SDS011;17990;49.548;9.730;2024-01-30T04:54:33;25.63;;;13.20;;
16735;SDS011;17990;49.548;9.730;2024-01-30T04:57:02;24.80;;;13.73;;
16735;SDS011;17990;49.548;9.730;2024-01-30T04:59:30;28.60;;;13.60;;
16735;SDS011;17990;49.548;9.730;2024-01-30T05:01:57;22.37;;;13.20;;
16735;SDS011;17990;49.548;9.730;2024-01-30T05:04:23;24.30;;;13.33;;
16735;SDS011;17990;49.548;9.730;2024-01-30T05:06:50;27.57;;;14.50;;
16735;SDS011;17990;49.548;9.730;2024-01-30T05:09:17;47.60;;;24.30;;
16735;SDS011;17990;49.548;9.730;2024-01-30T05:11:44;25.63;;;14.93;;
16735;SDS011;17990;49.548;9.730;2024-01-30T05:14:12;26.73;;;13.83;;
16735;SDS011;17990;49.548;9.730;2024-01-30T05:16:40;31.87;;;16.90;;
16735;SDS011;17990;49.548;9.730;2024-01-30T05:19:08;24.13;;;15.37;;
16735;SDS011;17990;49.548;9.730;2024-01-30T05:21:34;34.33;;;19.70;;
16735;SDS011;17990;49.548;9.730;2024-01-30T05:24:01;23.17;;;13.67;;
16735;SDS011;17990;49.548;9.730;2024-01-30T05:26:28;23.63;;;13.50;;
16735;SDS011;17990;49.548;9.730;2024-01-30T05:28:55;22.83;;;13.13;;
16735;SDS011;17990;49.548;9.730;2024-01-30T05:31:23;23.83;;;14.10;;
16735;SDS011;17990;49.548;9.730;2024-01-30T05:33:51;24.03;;;13.30;;
16735;SDS011;17990;49.548;9.730;2024-01-30T05:36:17;20.03;;;12.87;;
16735;SDS011;17990;49.548;9.730;2024-01-30T05:38:44;24.93;;;14.70;;
16735;SDS011;17990;49.548;9.730;2024-01-30T05:41:11;22.20;;;12.30;;
16735;SDS011;17990;49.548;9.730;2024-01-30T05:43:38;25.37;;;14.20;;
16735;SDS011;17990;49.548;9.730;2024-01-30T05:46:04;26.87;;;14.47;;
16735;SDS011;17990;49.548;9.730;2024-01-30T05:48:33;26.33;;;15.03;;
16735;SDS011;17990;49.548;9.730;2024-01-30T05:51:00;27.97;;;13.90;;
16735;SDS011;17990;49.548;9.730;2024-01-30T05:53:27;24.93;;;14.43;;
16735;SDS011;17990;49.548;9.730;2024-01-30T05:55:53;24.97;;;14.20;;
16735;SDS011;17990;49.548;9.730;2024-01-30T05:58:20;21.97;;;13.37;;
16735;SDS011;17990;49.548;9.730;2024-01-30T06:00:47;24.70;;;12.10;;
16735;SDS011;17990;49.548;9.730;2024-01-30T06:03:13;22.40;;;12.77;;
16735;SDS011;17990;49.548;9.730;2024-01-30T06:05:41;21.17;;;12.70;;
16735;SDS011;17990;49.548;9.730;2024-01-30T06:08:08;23.60;;;13.57;;
16735;SDS011;17990;49.548;9.730;2024-01-30T06:10:35;23.20;;;14.37;;
16735;SDS011;17990;49.548;9.730;2024-01-30T06:13:01;23.23;;;14.17;;
16735;SDS011;17990;49.548;9.730;2024-01-30T06:15:28;29.77;;;17.17;;
16735;SDS011;17990;49.548;9.730;2024-01-30T06:17:55;33.40;;;18.53;;
16735;SDS011;17990;49.548;9.730;2024-01-30T06:20:22;38.80;;;19.33;;
16735;SDS011;17990;49.548;9.730;2024-01-30T06:22:50;27.63;;;15.37;;
16735;SDS011;17990;49.548;9.730;2024-01-30T06:25:16;23.17;;;13.93;;
16735;SDS011;17990;49.548;9.730;2024-01-30T06:27:43;22.20;;;13.33;;
16735;SDS011;17990;49.548;9.730;2024-01-30T06:30:10;27.93;;;14.77;;
16735;SDS011;17990;49.548;9.730;2024-01-30T06:32:38;23.53;;;14.20;;
16735;SDS011;17990;49.548;9.730;2024-01-30T06:35:05;25.80;;;15.23;;
16735;SDS011;17990;49.548;9.730;2024-01-30T06:37:33;20.33;;;12.53;;
16735;SDS011;17990;49.548;9.730;2024-01-30T06:40:01;20.20;;;12.10;;
16735;SDS011;17990;49.548;9.730;2024-01-30T06:42:27;20.87;;;11.80;;
16735;SDS011;17990;49.548;9.730;2024-01-30T06:44:54;21.13;;;12.70;;
16735;SDS011;17990;49.548;9.730;2024-01-30T06:47:21;21.27;;;12.30;;
16735;SDS011;17990;49.548;9.730;2024-01-30T06:49:47;27.73;;;12.67;;
16735;SDS011;17990;49.548;9.730;2024-01-30T06:52:14;19.63;;;11.93;;
16735;SDS011;17990;49.548;9.730;2024-01-30T06:54:41;23.93;;;13.37;;
16735;SDS011;17990;49.548;9.730;2024-01-30T06:57:09;21.90;;;12.27;;
16735;SDS011;17990;49.548;9.730;2024-01-30T06:59:36;21.33;;;11.83;;
16735;SDS011;17990;49.548;9.730;2024-01-30T07:02:08;19.93;;;11.23;;
16735;SDS011;17990;49.548;9.730;2024-01-30T07:04:35;19.83;;;12.10;;
16735;SDS011;17990;49.548;9.730;2024-01-30T07:07:02;22.23;;;11.50;;
16735;SDS011;17990;49.548;9.730;2024-01-30T07:09:30;21.67;;;12.00;;
16735;SDS011;17990;49.548;9.730;2024-01-30T07:11:57;23.47;;;11.80;;
16735;SDS011;17990;49.548;9.730;2024-01-30T07:14:25;18.30;;;10.63;;
16735;SDS011;17990;49.548;9.730;2024-01-30T07:16:52;19.97;;;11.07;;
16735;SDS011;17990;49.548;9.730;2024-01-30T07:19:19;18.30;;;11.03;;
16735;SDS011;17990;49.548;9.730;2024-01-30T07:21:45;15.23;;;10.93;;
16735;SDS011;17990;49.548;9.730;2024-01-30T07:24:12;16.80;;;10.27;;
16735;SDS011;17990;49.548;9.730;2024-01-30T07:26:39;16.40;;;10.23;;
16735;SDS011;17990;49.548;9.730;2024-01-30T07:29:06;16.60;;;10.07;;
16735;SDS011;17990;49.548;9.730;2024-01-30T07:31:34;20.93;;;11.10;;
16735;SDS011;17990;49.548;9.730;2024-01-30T07:34:00;19.20;;;10.73;;
16735;SDS011;17990;49.548;9.730;2024-01-30T07:36:28;16.77;;;10.67;;
16735;SDS011;17990;49.548;9.730;2024-01-30T07:38:55;17.77;;;10.57;;
16735;SDS011;17990;49.548;9.730;2024-01-30T07:41:21;18.50;;;11.10;;
16735;SDS011;17990;49.548;9.730;2024-01-30T07:43:50;19.10;;;10.87;;
16735;SDS011;17990;49.548;9.730;2024-01-30T07:46:17;21.83;;;11.70;;
16735;SDS011;17990;49.548;9.730;2024-01-30T07:48:45;19.87;;;11.17;;
16735;SDS011;17990;49.548;9.730;2024-01-30T07:51:12;17.17;;;10.83;;
16735;SDS011;17990;49.548;9.730;2024-01-30T07:53:38;18.93;;;10.40;;
16735;SDS011;17990;49.548;9.730;2024-01-30T07:56:05;21.93;;;11.30;;
16735;SDS011;17990;49.548;9.730;2024-01-30T07:58:32;19.07;;;11.97;;
16735;SDS011;17990;49.548;9.730;2024-01-30T08:00:59;19.87;;;12.30;;
16735;SDS011;17990;49.548;9.730;2024-01-30T08:03:25;20.17;;;11.40;;
16735;SDS011;17990;49.548;9.730;2024-01-30T08:05:54;23.50;;;11.67;;
16735;SDS011;17990;49.548;9.730;2024-01-30T08:08:20;20.90;;;12.33;;
16735;SDS011;17990;49.548;9.730;2024-01-30T08:10:47;20.63;;;12.60;;
16735;SDS011;17990;49.548;9.730;2024-01-30T08:13:14;19.97;;;12.27;;
16735;SDS011;17990;49.548;9.730;2024-01-30T08:15:41;18.53;;;11.53;;
16735;SDS011;17990;49.548;9.730;2024-01-30T08:18:08;21.50;;;11.73;;
16735;SDS011;17990;49.548;9.730;2024-01-30T08:20:35;18.30;;;12.37;;
16735;SDS011;17990;49.548;9.730;2024-01-30T08:23:03;21.53;;;11.53;;
16735;SDS011;17990;49.548;9.730;2024-01-30T08:25:30;21.57;;;11.90;;
16735;SDS011;17990;49.548;9.730;2024-01-30T08:27:57;16.63;;;9.77;;
16735;SDS011;17990;49.548;9.730;2024-01-30T08:30:23;18.07;;;10.13;;
16735;SDS011;17990;49.548;9.730;2024-01-30T08:32:50;17.17;;;10.17;;
16735;SDS011;17990;49.548;9.730;2024-01-30T08:35:16;16.43;;;10.80;;
16735;SDS011;17990;49.548;9.730;2024-01-30T08:37:43;17.13;;;11.03;;
16735;SDS011;17990;49.548;9.730;2024-01-30T08:40:11;18.63;;;10.67;;
16735;SDS011;17990;49.548;9.730;2024-01-30T08:42:38;23.07;;;10.83;;
16735;SDS011;17990;49.548;9.730;2024-01-30T08:45:05;15.63;;;10.13;;
16735;SDS011;17990;49.548;9.730;2024-01-30T08:47:33;15.77;;;10.10;;
16735;SDS011;17990;49.548;9.730;2024-01-30T08:49:59;14.57;;;9.40;;
16735;SDS011;17990;49.548;9.730;2024-01-30T08:52:26;16.73;;;10.00;;
16735;SDS011;17990;49.548;9.730;2024-01-30T08:54:53;12.57;;;8.73;;
16735;SDS011;17990;49.548;9.730;2024-01-30T08:57:21;14.37;;;9.80;;
16735;SDS011;17990;49.548;9.730;2024-01-30T08:59:48;14.23;;;9.27;;
16735;SDS011;17990;49.548;9.730;2024-01-30T09:02:15;13.97;;;9.10;;
16735;SDS011;17990;49.548;9.730;2024-01-30T09:04:43;14.10;;;9.07;;
16735;SDS011;17990;49.548;9.730;2024-01-30T09:07:09;14.73;;;9.67;;
16735;SDS011;17990;49.548;9.730;2024-01-30T09:09:38;13.43;;;8.90;;
16735;SDS011;17990;49.548;9.730;2024-01-30T09:12:06;15.00;;;10.03;;
16735;SDS011;17990;49.548;9.730;2024-01-30T09:14:35;13.63;;;8.47;;
16735;SDS011;17990;49.548;9.730;2024-01-30T09:17:02;12.60;;;8.73;;
16735;SDS011;17990;49.548;9.730;2024-01-30T09:19:29;13.27;;;9.10;;
16735;SDS011;17990;49.548;9.730;2024-01-30T09:21:56;17.97;;;9.40;;
16735;SDS011;17990;49.548;9.730;2024-01-30T09:24:23;12.17;;;8.27;;
16735;SDS011;17990;49.548;9.730;2024-01-30T09:26:51;12.80;;;8.57;;
16735;SDS011;17990;49.548;9.730;2024-01-30T09:29:17;18.30;;;9.20;;
16735;SDS011;17990;49.548;9.730;2024-01-30T09:31:46;11.67;;;8.10;;
16735;SDS011;17990;49.548;9.730;2024-01-30T09:34:13;17.17;;;8.97;;
16735;SDS011;17990;49.548;9.730;2024-01-30T09:36:39;15.77;;;8.40;;
16735;SDS011;17990;49.548;9.730;2024-01-30T09:39:06;11.33;;;7.90;;
16735;SDS011;17990;49.548;9.730;2024-01-30T09:41:34;17.87;;;8.97;;
16735;SDS011;17990;49.548;9.730;2024-01-30T09:44:08;12.63;;;8.27;;
16735;SDS011;17990;49.548;9.730;2024-01-30T09:46:36;16.00;;;10.27;;
16735;SDS011;17990;49.548;9.730;2024-01-30T09:49:05;16.53;;;9.57;;
16735;SDS011;17990;49.548;9.730;2024-01-30T09:54:17;15.13;;;9.57;;
16735;SDS011;17990;49.548;9.730;2024-01-30T09:56:44;16.50;;;8.60;;
16735;SDS011;17990;49.548;9.730;2024-01-30T09:59:11;19.53;;;11.47;;
16735;SDS011;17990;49.548;9.730;2024-01-30T10:01:38;23.47;;;11.83;;
16735;SDS011;17990;49.548;9.730;2024-01-30T10:04:07;25.50;;;13.10;;
16735;SDS011;17990;49.548;9.730;2024-01-30T10:06:34;31.77;;;14.97;;
16735;SDS011;17990;49.548;9.730;2024-01-30T10:09:01;18.90;;;10.50;;
16735;SDS011;17990;49.548;9.730;2024-01-30T10:11:28;14.03;;;8.80;;
16735;SDS011;17990;49.548;9.730;2024-01-30T10:13:54;16.87;;;9.43;;
16735;SDS011;17990;49.548;9.730;2024-01-30T10:16:21;13.93;;;8.90;;
16735;SDS011;17990;49.548;9.730;2024-01-30T10:18:48;16.13;;;9.43;;
16735;SDS011;17990;49.548;9.730;2024-01-30T10:21:16;19.73;;;9.53;;
16735;SDS011;17990;49.548;9.730;2024-01-30T10:23:44;18.07;;;9.37;;
16735;SDS011;17990;49.548;9.730;2024-01-30T10:26:10;15.30;;;10.23;;
16735;SDS011;17990;49.548;9.730;2024-01-30T10:28:37;19.77;;;10.53;;
16735;SDS011;17990;49.548;9.730;2024-01-30T10:31:04;14.93;;;9.70;;
16735;SDS011;17990;49.548;9.730;2024-01-30T10:33:31;19.93;;;10.47;;
16735;SDS011;17990;49.548;9.730;2024-01-30T10:36:00;19.13;;;9.90;;
16735;SDS011;17990;49.548;9.730;2024-01-30T10:38:29;19.60;;;9.70;;
16735;SDS011;17990;49.548;9.730;2024-01-30T10:40:57;14.27;;;8.87;;
16735;SDS011;17990;49.548;9.730;2024-01-30T10:43:28;15.67;;;9.33;;
16735;SDS011;17990;49.548;9.730;2024-01-30T10:45:58;19.17;;;10.03;;
16735;SDS011;17990;49.548;9.730;2024-01-30T10:48:32;16.63;;;9.53;;
16735;SDS011;17990;49.548;9.730;2024-01-30T10:51:05;16.97;;;9.63;;
16735;SDS011;17990;49.548;9.730;2024-01-30T10:53:33;13.47;;;9.27;;
16735;SDS011;17990;49.548;9.730;2024-01-30T10:56:01;18.67;;;10.00;;
16735;SDS011;17990;49.548;9.730;2024-01-30T10:58:29;18.57;;;9.63;;
16735;SDS011;17990;49.548;9.730;2024-01-30T11:00:56;17.33;;;10.60;;
16735;SDS011;17990;49.548;9.730;2024-01-30T11:03:24;15.77;;;9.93;;
16735;SDS011;17990;49.548;9.730;2024-01-30T11:05:51;20.23;;;9.20;;
16735;SDS011;17990;49.548;9.730;2024-01-30T11:08:24;19.10;;;10.23;;
16735;SDS011;17990;49.548;9.730;2024-01-30T11:10:55;20.73;;;10.37;;
16735;SDS011;17990;49.548;9.730;2024-01-30T11:13:26;16.87;;;10.20;;
16735;SDS011;17990;49.548;9.730;2024-01-30T11:15:54;17.77;;;9.17;;
16735;SDS011;17990;49.548;9.730;2024-01-30T11:18:23;19.30;;;9.43;;
16735;SDS011;17990;49.548;9.730;2024-01-30T11:20:51;18.27;;;9.10;;
16735;SDS011;17990;49.548;9.730;2024-01-30T11:23:18;24.23;;;8.10;;
16735;SDS011;17990;49.548;9.730;2024-01-30T11:25:48;14.10;;;8.43;;
16735;SDS011;17990;49.548;9.730;2024-01-30T11:28:16;13.53;;;8.93;;
16735;SDS011;17990;49.548;9.730;2024-01-30T11:30:43;23.67;;;9.87;;
16735;SDS011;17990;49.548;9.730;2024-01-30T11:33:12;15.07;;;9.70;;
16735;SDS011;17990;49.548;9.730;2024-01-30T11:35:40;20.60;;;10.17;;
16735;SDS011;17990;49.548;9.730;2024-01-30T11:38:08;35.03;;;12.90;;
16735;SDS011;17990;49.548;9.730;2024-01-30T11:40:36;37.20;;;15.40;;
16735;SDS011;17990;49.548;9.730;2024-01-30T11:43:05;47.83;;;15.80;;
16735;SDS011;17990;49.548;9.730;2024-01-30T11:45:35;37.90;;;16.13;;
16735;SDS011;17990;49.548;9.730;2024-01-30T11:48:02;47.83;;;17.13;;
16735;SDS011;17990;49.548;9.730;2024-01-30T11:50:30;22.37;;;12.00;;
16735;SDS011;17990;49.548;9.730;2024-01-30T11:52:57;26.67;;;12.60;;
16735;SDS011;17990;49.548;9.730;2024-01-30T11:55:25;25.43;;;13.60;;
16735;SDS011;17990;49.548;9.730;2024-01-30T11:57:54;26.37;;;15.17;;
16735;SDS011;17990;49.548;9.730;2024-01-30T12:00:22;22.83;;;11.23;;
16735;SDS011;17990;49.548;9.730;2024-01-30T12:02:50;27.27;;;10.60;;
16735;SDS011;17990;49.548;9.730;2024-01-30T12:05:21;30.17;;;11.43;;
16735;SDS011;17990;49.548;9.730;2024-01-30T12:07:48;22.03;;;13.10;;
16735;SDS011;17990;49.548;9.730;2024-01-30T12:10:15;60.47;;;34.40;;
16735;SDS011;17990;49.548;9.730;2024-01-30T12:12:43;16.57;;;9.43;;
16735;SDS011;17990;49.548;9.730;2024-01-30T12:15:11;17.53;;;10.80;;
16735;SDS011;17990;49.548;9.730;2024-01-30T12:17:39;28.27;;;16.87;;
16735;SDS011;17990;49.548;9.730;2024-01-30T12:20:08;21.40;;;9.90;;
16735;SDS011;17990;49.548;9.730;2024-01-30T12:22:38;16.97;;;8.77;;
16735;SDS011;17990;49.548;9.730;2024-01-30T12:25:07;11.07;;;8.03;;
16735;SDS011;17990;49.548;9.730;2024-01-30T12:27:34;24.47;;;9.80;;
16735;SDS011;17990;49.548;9.730;2024-01-30T12:30:04;16.07;;;8.83;;
16735;SDS011;17990;49.548;9.730;2024-01-30T12:32:31;23.83;;;13.23;;
16735;SDS011;17990;49.548;9.730;2024-01-30T12:35:01;19.73;;;7.77;;
16735;SDS011;17990;49.548;9.730;2024-01-30T12:37:29;11.37;;;6.17;;
16735;SDS011;17990;49.548;9.730;2024-01-30T12:39:56;24.67;;;9.93;;
16735;SDS011;17990;49.548;9.730;2024-01-30T12:42:23;11.60;;;6.87;;
16735;SDS011;17990;49.548;9.730;2024-01-30T12:44:53;14.27;;;8.73;;
16735;SDS011;17990;49.548;9.730;2024-01-30T12:47:21;15.20;;;7.20;;
16735;SDS011;17990;49.548;9.730;2024-01-30T12:49:48;14.23;;;6.67;;
16735;SDS011;17990;49.548;9.730;2024-01-30T12:52:18;13.67;;;6.80;;
16735;SDS011;17990;49.548;9.730;2024-01-30T12:54:47;16.07;;;5.10;;
16735;SDS011;17990;49.548;9.730;2024-01-30T12:57:14;12.00;;;4.70;;
16735;SDS011;17990;49.548;9.730;2024-01-30T12:59:41;19.10;;;5.70;;
16735;SDS011;17990;49.548;9.730;2024-01-30T13:02:08;11.13;;;4.73;;
16735;SDS011;17990;49.548;9.730;2024-01-30T13:04:35;8.20;;;4.00;;
16735;SDS011;17990;49.548;9.730;2024-01-30T13:07:02;8.80;;;4.83;;
16735;SDS011;17990;49.548;9.730;2024-01-30T13:09:29;13.47;;;5.10;;
16735;SDS011;17990;49.548;9.730;2024-01-30T13:11:58;15.23;;;4.33;;
16735;SDS011;17990;49.548;9.730;2024-01-30T13:14:24;14.67;;;5.87;;
16735;SDS011;17990;49.548;9.730;2024-01-30T13:16:51;11.07;;;4.43;;
16735;SDS011;17990;49.548;9.730;2024-01-30T13:19:18;14.23;;;7.40;;
16735;SDS011;17990;49.548;9.730;2024-01-30T13:21:45;8.43;;;4.97;;
16735;SDS011;17990;49.548;9.730;2024-01-30T13:24:13;9.23;;;3.97;;
16735;SDS011;17990;49.548;9.730;2024-01-30T13:26:40;13.20;;;4.13;;
16735;SDS011;17990;49.548;9.730;2024-01-30T13:29:09;15.13;;;4.40;;
16735;SDS011;17990;49.548;9.730;2024-01-30T13:31:36;10.50;;;3.80;;
16735;SDS011;17990;49.548;9.730;2024-01-30T13:34:04;11.03;;;5.10;;
16735;SDS011;17990;49.548;9.730;2024-01-30T13:36:31;29.00;;;6.33;;
16735;SDS011;17990;49.548;9.730;2024-01-30T13:38:58;7.00;;;3.90;;
16735;SDS011;17990;49.548;9.730;2024-01-30T13:41:25;8.97;;;3.13;;
16735;SDS011;17990;49.548;9.730;2024-01-30T13:43:52;13.67;;;4.37;;
16735;SDS011;17990;49.548;9.730;2024-01-30T13:46:20;7.80;;;3.60;;
16735;SDS011;17990;49.548;9.730;2024-01-30T13:48:47;5.50;;;2.47;;
16735;SDS011;17990;49.548;9.730;2024-01-30T13:51:13;13.47;;;7.50;;
16735;SDS011;17990;49.548;9.730;2024-01-30T13:53:42;10.37;;;3.80;;
16735;SDS011;17990;49.548;9.730;2024-01-30T13:56:08;9.00;;;3.80;;
16735;SDS011;17990;49.548;9.730;2024-01-30T13:58:35;6.93;;;3.80;;
16735;SDS011;17990;49.548;9.730;2024-01-30T14:01:02;11.80;;;6.37;;
16735;SDS011;17990;49.548;9.730;2024-01-30T14:03:31;14.03;;;4.47;;
16735;SDS011;17990;49.548;9.730;2024-01-30T14:05:58;8.93;;;4.47;;
16735;SDS011;17990;49.548;9.730;2024-01-30T14:08:25;24.87;;;15.97;;
16735;SDS011;17990;49.548;9.730;2024-01-30T14:10:53;16.50;;;11.23;;
16735;SDS011;17990;49.548;9.730;2024-01-30T14:13:19;5.40;;;3.80;;
16735;SDS011;17990;49.548;9.730;2024-01-30T14:15:47;12.97;;;5.10;;
16735;SDS011;17990;49.548;9.730;2024-01-30T14:18:14;10.13;;;3.40;;
16735;SDS011;17990;49.548;9.730;2024-01-30T14:20:42;10.87;;;4.53;;
16735;SDS011;17990;49.548;9.730;2024-01-30T14:23:09;8.57;;;4.10;;
16735;SDS011;17990;49.548;9.730;2024-01-30T14:25:36;7.67;;;3.93;;
16735;SDS011;17990;49.548;9.730;2024-01-30T14:28:03;7.80;;;3.40;;